AHY335 UBBB-UZTT
Flight info
| Callsign | AHY335 |
|---|---|
| Flight time | 2h 2m |
| Altitude | 41000 |
| Route | NAMAS N35 RODAR A909 TUNEK B143 KRS B738 NEBIT B476 DARVA/K0878F410 T898 OGOLI N193 DIBAD |
| Aircraft | B772/H-SDE2E3FGHIJ5LORVWXY/LB1D1 |
Departure
| Time | 2026-04-27 11:06 |
|---|---|
| Airport | Heydar Aliyev International Airport (UBBB) |
Arrival
| Time | 2026-04-27 13:09 |
|---|---|
| Airport | Tashkent International Airport (UZTT) |
| Time | Latitude | Longitude | Altitude | Speed | Heading |
|---|---|---|---|---|---|
| 2026-04-27 09:53 | 40.46362 | 50.04829 | 22 ft | 0 kts | 118° |
| 2026-04-27 10:49 | 40.46362 | 50.04828 | 22 ft | 0 kts | 118° |
| 2026-04-27 10:49 | 40.46369 | 50.04812 | 22 ft | 3 kts | 117° |
| 2026-04-27 10:50 | 40.46379 | 50.04782 | 22 ft | 3 kts | 111° |
| 2026-04-27 10:50 | 40.46386 | 50.04753 | 22 ft | 2 kts | 90° |
| 2026-04-27 10:50 | 40.46382 | 50.04735 | 22 ft | 1 kts | 49° |
| 2026-04-27 10:50 | 40.46371 | 50.04726 | 22 ft | 2 kts | 14° |
| 2026-04-27 10:51 | 40.46360 | 50.04724 | 22 ft | 0 kts | 2° |
| 2026-04-27 10:51 | 40.46363 | 50.04724 | 22 ft | 2 kts | 6° |
| 2026-04-27 10:51 | 40.46386 | 50.04733 | 22 ft | 3 kts | 22° |
| 2026-04-27 10:51 | 40.46395 | 50.04738 | 22 ft | 0 kts | 23° |
| 2026-04-27 10:52 | 40.46395 | 50.04739 | 22 ft | 0 kts | 23° |
| 2026-04-27 10:53 | 40.46395 | 50.04738 | 22 ft | 0 kts | 23° |
| 2026-04-27 11:00 | 40.46411 | 50.04748 | 22 ft | 6 kts | 25° |
| 2026-04-27 11:00 | 40.46462 | 50.04781 | 22 ft | 9 kts | 27° |
| 2026-04-27 11:00 | 40.46522 | 50.04823 | 22 ft | 6 kts | 18° |
| 2026-04-27 11:00 | 40.46555 | 50.04790 | 22 ft | 8 kts | 281° |
| 2026-04-27 11:01 | 40.46553 | 50.04702 | 22 ft | 11 kts | 267° |
| 2026-04-27 11:01 | 40.46550 | 50.04577 | 22 ft | 15 kts | 269° |
| 2026-04-27 11:01 | 40.46548 | 50.04428 | 22 ft | 17 kts | 266° |
| 2026-04-27 11:01 | 40.46540 | 50.04262 | 22 ft | 17 kts | 257° |
| 2026-04-27 11:02 | 40.46443 | 50.04208 | 22 ft | 18 kts | 162° |
| 2026-04-27 11:02 | 40.46315 | 50.04268 | 22 ft | 20 kts | 160° |
| 2026-04-27 11:02 | 40.46170 | 50.04338 | 22 ft | 23 kts | 159° |
| 2026-04-27 11:02 | 40.46011 | 50.04418 | 22 ft | 26 kts | 160° |
| 2026-04-27 11:03 | 40.45845 | 50.04497 | 22 ft | 19 kts | 159° |
| 2026-04-27 11:03 | 40.45735 | 50.04543 | 22 ft | 10 kts | 186° |
| 2026-04-27 11:03 | 40.45682 | 50.04469 | 22 ft | 13 kts | 245° |
| 2026-04-27 11:03 | 40.45649 | 50.04349 | 22 ft | 14 kts | 254° |
| 2026-04-27 11:04 | 40.45645 | 50.04330 | 22 ft | 0 kts | 254° |
| 2026-04-27 11:04 | 40.45645 | 50.04329 | 22 ft | 0 kts | 254° |
| 2026-04-27 11:04 | 40.45639 | 50.04303 | 22 ft | 6 kts | 255° |
| 2026-04-27 11:04 | 40.45629 | 50.04211 | 22 ft | 12 kts | 276° |
| 2026-04-27 11:05 | 40.45685 | 50.04119 | 22 ft | 14 kts | 336° |
| 2026-04-27 11:05 | 40.45723 | 50.04102 | 22 ft | 1 kts | 344° |
| 2026-04-27 11:05 | 40.45728 | 50.04101 | 22 ft | 0 kts | 346° |
| 2026-04-27 11:06 | 40.45753 | 50.04092 | 22 ft | 25 kts | 345° |
| 2026-04-27 11:06 | 40.46202 | 50.03949 | 23 ft | 101 kts | 347° |
| 2026-04-27 11:06 | 40.47069 | 50.03667 | 48 ft | 151 kts | 343° |
| 2026-04-27 11:06 | 40.48099 | 50.03318 | 641 ft | 149 kts | 345° |
| 2026-04-27 11:07 | 40.49120 | 50.03008 | 1218 ft | 159 kts | 346° |
| 2026-04-27 11:07 | 40.50203 | 50.02684 | 1824 ft | 164 kts | 347° |
| 2026-04-27 11:07 | 40.51320 | 50.02358 | 2351 ft | 174 kts | 345° |
| 2026-04-27 11:07 | 40.52554 | 50.01952 | 2776 ft | 191 kts | 345° |
| 2026-04-27 11:08 | 40.53869 | 50.01535 | 3347 ft | 201 kts | 345° |
| 2026-04-27 11:08 | 40.55281 | 50.01062 | 3771 ft | 218 kts | 346° |
| 2026-04-27 11:08 | 40.56821 | 50.00631 | 4138 ft | 238 kts | 350° |
| 2026-04-27 11:08 | 40.58546 | 50.00576 | 4567 ft | 255 kts | 4° |
| 2026-04-27 11:09 | 40.60278 | 50.01105 | 5301 ft | 260 kts | 19° |
| 2026-04-27 11:09 | 40.61826 | 50.02386 | 5819 ft | 275 kts | 41° |
| 2026-04-27 11:09 | 40.62848 | 50.04487 | 6621 ft | 275 kts | 71° |
| 2026-04-27 11:09 | 40.63039 | 50.06955 | 7252 ft | 281 kts | 96° |
| 2026-04-27 11:10 | 40.62452 | 50.09473 | 7669 ft | 293 kts | 119° |
| 2026-04-27 11:10 | 40.61380 | 50.11735 | 8039 ft | 291 kts | 123° |
| 2026-04-27 11:10 | 40.60513 | 50.14148 | 8053 ft | 292 kts | 109° |
| 2026-04-27 11:10 | 40.60100 | 50.16753 | 8010 ft | 292 kts | 98° |
| 2026-04-27 11:11 | 40.59838 | 50.19417 | 8016 ft | 293 kts | 98° |
| 2026-04-27 11:11 | 40.59562 | 50.22075 | 8015 ft | 293 kts | 98° |
| 2026-04-27 11:11 | 40.59285 | 50.24712 | 8013 ft | 293 kts | 98° |
| 2026-04-27 11:11 | 40.59005 | 50.27383 | 8013 ft | 292 kts | 98° |
| 2026-04-27 11:12 | 40.58608 | 50.29959 | 8006 ft | 292 kts | 110° |
| 2026-04-27 11:12 | 40.57782 | 50.32485 | 8457 ft | 300 kts | 116° |
| 2026-04-27 11:12 | 40.56899 | 50.34891 | 9412 ft | 293 kts | 117° |
| 2026-04-27 11:12 | 40.56016 | 50.37279 | 10144 ft | 295 kts | 117° |
| 2026-04-27 11:13 | 40.55090 | 50.39790 | 10515 ft | 311 kts | 117° |
| 2026-04-27 11:13 | 40.54130 | 50.42400 | 10807 ft | 329 kts | 117° |
| 2026-04-27 11:13 | 40.53114 | 50.45162 | 11078 ft | 347 kts | 117° |
| 2026-04-27 11:13 | 40.52049 | 50.48068 | 11380 ft | 363 kts | 117° |
| 2026-04-27 11:14 | 40.50918 | 50.51152 | 11721 ft | 379 kts | 117° |
| 2026-04-27 11:14 | 40.49761 | 50.54305 | 12141 ft | 391 kts | 117° |
| 2026-04-27 11:14 | 40.48582 | 50.57517 | 12805 ft | 396 kts | 117° |
| 2026-04-27 11:14 | 40.47389 | 50.60760 | 13593 ft | 399 kts | 117° |
| 2026-04-27 11:15 | 40.46173 | 50.64063 | 14416 ft | 403 kts | 117° |
| 2026-04-27 11:15 | 40.44960 | 50.67357 | 15248 ft | 408 kts | 118° |
| 2026-04-27 11:15 | 40.43715 | 50.70730 | 16087 ft | 412 kts | 118° |
| 2026-04-27 11:15 | 40.42465 | 50.74112 | 16917 ft | 416 kts | 118° |
| 2026-04-27 11:16 | 40.41201 | 50.77530 | 17692 ft | 421 kts | 118° |
| 2026-04-27 11:16 | 40.39923 | 50.80978 | 18430 ft | 427 kts | 118° |
| 2026-04-27 11:16 | 40.38638 | 50.84475 | 19184 ft | 431 kts | 116° |
| 2026-04-27 11:16 | 40.37633 | 50.88232 | 19906 ft | 439 kts | 106° |
| 2026-04-27 11:17 | 40.37123 | 50.92196 | 20623 ft | 445 kts | 96° |
| 2026-04-27 11:17 | 40.37137 | 50.96247 | 21333 ft | 451 kts | 85° |
| 2026-04-27 11:17 | 40.37665 | 51.00269 | 22034 ft | 455 kts | 77° |
| 2026-04-27 11:17 | 40.38407 | 51.04294 | 22715 ft | 459 kts | 77° |
| 2026-04-27 11:18 | 40.39164 | 51.08351 | 23364 ft | 464 kts | 77° |
| 2026-04-27 11:18 | 40.39922 | 51.12453 | 24017 ft | 468 kts | 77° |
| 2026-04-27 11:18 | 40.40686 | 51.16616 | 24658 ft | 473 kts | 77° |
| 2026-04-27 11:18 | 40.41452 | 51.20824 | 25269 ft | 478 kts | 77° |
| 2026-04-27 11:19 | 40.42222 | 51.25074 | 25836 ft | 484 kts | 77° |
| 2026-04-27 11:19 | 40.42997 | 51.29372 | 26392 ft | 489 kts | 77° |
| 2026-04-27 11:19 | 40.43778 | 51.33716 | 26956 ft | 494 kts | 77° |
| 2026-04-27 11:19 | 40.44565 | 51.38118 | 27554 ft | 498 kts | 77° |
| 2026-04-27 11:20 | 40.45362 | 51.42583 | 28117 ft | 503 kts | 77° |
| 2026-04-27 11:20 | 40.45918 | 51.47081 | 28625 ft | 507 kts | 85° |
| 2026-04-27 11:20 | 40.45956 | 51.51693 | 29160 ft | 510 kts | 94° |
| 2026-04-27 11:20 | 40.45459 | 51.56325 | 29870 ft | 509 kts | 103° |
| 2026-04-27 11:21 | 40.44683 | 51.60777 | 30692 ft | 505 kts | 104° |
| 2026-04-27 11:21 | 40.43861 | 51.65282 | 31595 ft | 501 kts | 105° |
| 2026-04-27 11:21 | 40.43060 | 51.69653 | 32456 ft | 497 kts | 105° |
| 2026-04-27 11:21 | 40.42254 | 51.74036 | 33192 ft | 495 kts | 105° |
| 2026-04-27 11:22 | 40.41443 | 51.78441 | 33944 ft | 493 kts | 104° |
| 2026-04-27 11:22 | 40.40629 | 51.82846 | 34637 ft | 490 kts | 105° |
| 2026-04-27 11:22 | 40.39830 | 51.87170 | 35140 ft | 491 kts | 105° |
| 2026-04-27 11:22 | 40.39022 | 51.91524 | 35568 ft | 492 kts | 105° |
| 2026-04-27 11:23 | 40.38212 | 51.95881 | 36011 ft | 493 kts | 105° |
| 2026-04-27 11:23 | 40.37383 | 52.00333 | 36521 ft | 493 kts | 106° |
| 2026-04-27 11:23 | 40.36567 | 52.04705 | 37046 ft | 494 kts | 106° |
| 2026-04-27 11:23 | 40.35747 | 52.09090 | 37521 ft | 494 kts | 107° |
| 2026-04-27 11:24 | 40.34914 | 52.13528 | 37912 ft | 496 kts | 107° |
| 2026-04-27 11:24 | 40.34095 | 52.17889 | 38325 ft | 496 kts | 107° |
| 2026-04-27 11:24 | 40.33263 | 52.22306 | 38679 ft | 496 kts | 107° |
| 2026-04-27 11:24 | 40.32439 | 52.26671 | 38981 ft | 497 kts | 107° |
| 2026-04-27 11:25 | 40.31612 | 52.31040 | 39239 ft | 498 kts | 107° |
| 2026-04-27 11:25 | 40.30780 | 52.35428 | 39467 ft | 500 kts | 107° |
| 2026-04-27 11:25 | 40.29929 | 52.39904 | 39677 ft | 500 kts | 107° |
| 2026-04-27 11:25 | 40.29096 | 52.44277 | 39910 ft | 500 kts | 107° |
| 2026-04-27 11:26 | 40.28253 | 52.48696 | 40116 ft | 499 kts | 107° |
| 2026-04-27 11:26 | 40.27406 | 52.53120 | 40274 ft | 500 kts | 108° |
| 2026-04-27 11:26 | 40.24774 | 52.61430 | 40493 ft | 492 kts | 126° |
| 2026-04-27 11:27 | 40.22901 | 52.65183 | 40613 ft | 491 kts | 129° |
| 2026-04-27 11:27 | 40.21000 | 52.68846 | 40755 ft | 490 kts | 129° |
| 2026-04-27 11:27 | 40.19051 | 52.72579 | 40887 ft | 491 kts | 129° |
| 2026-04-27 11:27 | 40.17117 | 52.76272 | 40896 ft | 492 kts | 129° |
| 2026-04-27 11:28 | 40.13260 | 52.83619 | 40904 ft | 492 kts | 129° |
| 2026-04-27 11:28 | 40.09464 | 52.91078 | 40902 ft | 496 kts | 123° |
| 2026-04-27 11:29 | 40.07187 | 52.98864 | 40893 ft | 504 kts | 105° |
| 2026-04-27 11:29 | 40.06657 | 53.08028 | 40897 ft | 512 kts | 87° |
| 2026-04-27 11:30 | 40.08205 | 53.17033 | 40905 ft | 512 kts | 69° |
| 2026-04-27 11:30 | 40.10918 | 53.25620 | 40916 ft | 515 kts | 68° |
| 2026-04-27 11:31 | 40.13589 | 53.34258 | 40915 ft | 513 kts | 68° |
| 2026-04-27 11:31 | 40.16191 | 53.42914 | 40912 ft | 514 kts | 68° |
| 2026-04-27 11:32 | 40.18765 | 53.51626 | 40912 ft | 514 kts | 69° |
| 2026-04-27 11:32 | 40.21309 | 53.60332 | 40908 ft | 515 kts | 69° |
| 2026-04-27 11:33 | 40.23837 | 53.69044 | 40910 ft | 514 kts | 70° |
| 2026-04-27 11:33 | 40.26371 | 53.77833 | 40907 ft | 515 kts | 69° |
| 2026-04-27 11:34 | 40.28875 | 53.86557 | 40905 ft | 513 kts | 70° |
| 2026-04-27 11:34 | 40.31365 | 53.95264 | 40909 ft | 513 kts | 69° |
| 2026-04-27 11:35 | 40.33876 | 54.04079 | 40907 ft | 514 kts | 69° |
| 2026-04-27 11:35 | 40.36350 | 54.12795 | 40905 ft | 512 kts | 69° |
| 2026-04-27 11:36 | 40.38815 | 54.21514 | 40906 ft | 514 kts | 69° |
| 2026-04-27 11:36 | 40.41286 | 54.30279 | 40909 ft | 513 kts | 69° |
| 2026-04-27 11:37 | 40.43741 | 54.39019 | 40911 ft | 513 kts | 69° |
| 2026-04-27 11:37 | 40.46193 | 54.47779 | 40912 ft | 513 kts | 69° |
| 2026-04-27 11:38 | 40.48627 | 54.56506 | 40910 ft | 512 kts | 69° |
| 2026-04-27 11:38 | 40.51069 | 54.65288 | 40914 ft | 511 kts | 70° |
| 2026-04-27 11:39 | 40.53495 | 54.74044 | 40912 ft | 512 kts | 70° |
| 2026-04-27 11:39 | 40.55912 | 54.82803 | 40908 ft | 512 kts | 70° |
| 2026-04-27 11:40 | 40.58332 | 54.91597 | 40902 ft | 511 kts | 70° |
| 2026-04-27 11:40 | 40.60726 | 55.00327 | 40912 ft | 511 kts | 70° |
| 2026-04-27 11:41 | 40.63114 | 55.09070 | 40908 ft | 510 kts | 70° |
| 2026-04-27 11:41 | 40.65499 | 55.17826 | 40912 ft | 509 kts | 70° |
| 2026-04-27 11:42 | 40.67881 | 55.26606 | 40909 ft | 511 kts | 70° |
| 2026-04-27 11:42 | 40.70262 | 55.35412 | 40920 ft | 509 kts | 70° |
| 2026-04-27 11:43 | 40.72631 | 55.44205 | 40918 ft | 509 kts | 70° |
| 2026-04-27 11:43 | 40.74985 | 55.52974 | 40932 ft | 509 kts | 70° |
| 2026-04-27 11:44 | 40.77341 | 55.61780 | 40915 ft | 509 kts | 70° |
| 2026-04-27 11:44 | 40.79668 | 55.70511 | 40920 ft | 509 kts | 70° |
| 2026-04-27 11:45 | 40.81622 | 55.77863 | 40922 ft | 509 kts | 70° |
| 2026-04-27 11:45 | 40.84340 | 55.88131 | 40912 ft | 508 kts | 70° |
| 2026-04-27 11:46 | 40.86658 | 55.96917 | 40912 ft | 509 kts | 70° |
| 2026-04-27 11:46 | 40.88979 | 56.05748 | 40914 ft | 508 kts | 70° |
| 2026-04-27 11:47 | 40.91282 | 56.14545 | 40918 ft | 508 kts | 70° |
| 2026-04-27 11:47 | 40.93582 | 56.23358 | 40923 ft | 509 kts | 70° |
| 2026-04-27 11:48 | 40.95871 | 56.32164 | 40930 ft | 508 kts | 70° |
| 2026-04-27 11:48 | 40.98151 | 56.40966 | 40928 ft | 508 kts | 70° |
| 2026-04-27 11:49 | 41.00359 | 56.49821 | 40926 ft | 507 kts | 76° |
| 2026-04-27 11:49 | 41.01620 | 56.58946 | 40937 ft | 508 kts | 81° |
| 2026-04-27 11:50 | 41.02743 | 56.68177 | 40947 ft | 507 kts | 82° |
| 2026-04-27 11:50 | 41.03849 | 56.77412 | 40952 ft | 508 kts | 81° |
| 2026-04-27 11:51 | 41.04934 | 56.86570 | 40952 ft | 507 kts | 81° |
| 2026-04-27 11:52 | 41.06554 | 57.00397 | 40934 ft | 506 kts | 82° |
| 2026-04-27 11:52 | 41.07620 | 57.09591 | 40930 ft | 507 kts | 82° |
| 2026-04-27 11:53 | 41.08677 | 57.18776 | 40940 ft | 506 kts | 82° |
| 2026-04-27 11:53 | 41.09726 | 57.27962 | 40935 ft | 505 kts | 82° |
| 2026-04-27 11:54 | 41.10772 | 57.37189 | 40939 ft | 508 kts | 82° |
| 2026-04-27 11:54 | 41.11811 | 57.46426 | 40934 ft | 507 kts | 82° |
| 2026-04-27 11:55 | 41.12838 | 57.55618 | 40937 ft | 507 kts | 82° |
| 2026-04-27 11:55 | 41.13862 | 57.64857 | 40948 ft | 506 kts | 82° |
| 2026-04-27 11:56 | 41.14876 | 57.74076 | 40942 ft | 506 kts | 82° |
| 2026-04-27 11:56 | 41.15877 | 57.83247 | 40938 ft | 504 kts | 82° |
| 2026-04-27 11:57 | 41.16885 | 57.92541 | 40943 ft | 505 kts | 82° |
| 2026-04-27 11:57 | 41.17869 | 58.01700 | 40947 ft | 505 kts | 82° |
| 2026-04-27 11:58 | 41.18855 | 58.10942 | 40946 ft | 505 kts | 82° |
| 2026-04-27 11:58 | 41.19826 | 58.20106 | 40943 ft | 504 kts | 82° |
| 2026-04-27 11:59 | 41.20800 | 58.29365 | 40934 ft | 506 kts | 82° |
| 2026-04-27 11:59 | 41.21759 | 58.38551 | 40946 ft | 506 kts | 82° |
| 2026-04-27 12:00 | 41.22715 | 58.47796 | 40938 ft | 506 kts | 82° |
| 2026-04-27 12:00 | 41.23663 | 58.57028 | 40956 ft | 505 kts | 82° |
| 2026-04-27 12:01 | 41.24601 | 58.66244 | 40947 ft | 504 kts | 83° |
| 2026-04-27 12:01 | 41.25527 | 58.75406 | 40943 ft | 504 kts | 83° |
| 2026-04-27 12:02 | 41.26450 | 58.84616 | 40956 ft | 504 kts | 83° |
| 2026-04-27 12:02 | 41.27363 | 58.93808 | 40954 ft | 502 kts | 83° |
| 2026-04-27 12:03 | 41.28270 | 59.03010 | 40975 ft | 505 kts | 83° |
| 2026-04-27 12:03 | 41.29173 | 59.12252 | 40971 ft | 503 kts | 83° |
| 2026-04-27 12:04 | 41.30064 | 59.21444 | 40982 ft | 504 kts | 83° |
| 2026-04-27 12:04 | 41.30951 | 59.30676 | 40979 ft | 501 kts | 83° |
| 2026-04-27 12:05 | 41.31822 | 59.39828 | 40981 ft | 504 kts | 83° |
| 2026-04-27 12:05 | 41.32695 | 59.49069 | 40994 ft | 501 kts | 83° |
| 2026-04-27 12:06 | 41.33556 | 59.58271 | 40989 ft | 502 kts | 83° |
| 2026-04-27 12:06 | 41.34216 | 59.67493 | 40972 ft | 500 kts | 92° |
| 2026-04-27 12:07 | 41.33870 | 59.76687 | 40981 ft | 500 kts | 94° |
| 2026-04-27 12:07 | 41.33443 | 59.85868 | 40974 ft | 498 kts | 94° |
| 2026-04-27 12:08 | 41.33003 | 59.95115 | 40976 ft | 498 kts | 94° |
| 2026-04-27 12:08 | 41.32561 | 60.04223 | 40964 ft | 498 kts | 94° |
| 2026-04-27 12:09 | 41.32119 | 60.13415 | 40975 ft | 497 kts | 94° |
| 2026-04-27 12:09 | 41.31679 | 60.22520 | 40977 ft | 497 kts | 94° |
| 2026-04-27 12:10 | 41.31231 | 60.31644 | 40966 ft | 497 kts | 94° |
| 2026-04-27 12:10 | 41.30777 | 60.40763 | 40970 ft | 498 kts | 93° |
| 2026-04-27 12:11 | 41.31045 | 60.49960 | 40974 ft | 499 kts | 86° |
| 2026-04-27 12:11 | 41.31544 | 60.59142 | 40971 ft | 498 kts | 86° |
| 2026-04-27 12:12 | 41.32031 | 60.68305 | 40975 ft | 499 kts | 86° |
| 2026-04-27 12:12 | 41.32509 | 60.77478 | 40975 ft | 498 kts | 87° |
| 2026-04-27 12:13 | 41.32978 | 60.86663 | 40971 ft | 498 kts | 87° |
| 2026-04-27 12:13 | 41.33438 | 60.95819 | 40969 ft | 497 kts | 87° |
| 2026-04-27 12:14 | 41.33890 | 61.04961 | 40976 ft | 497 kts | 87° |
| 2026-04-27 12:14 | 41.34331 | 61.14048 | 40978 ft | 497 kts | 87° |
| 2026-04-27 12:15 | 41.34769 | 61.23216 | 40982 ft | 497 kts | 87° |
| 2026-04-27 12:15 | 41.35199 | 61.32357 | 40982 ft | 497 kts | 87° |
| 2026-04-27 12:16 | 41.35623 | 61.41542 | 40981 ft | 497 kts | 87° |
| 2026-04-27 12:16 | 41.36037 | 61.50625 | 40985 ft | 497 kts | 87° |
| 2026-04-27 12:17 | 41.36450 | 61.59801 | 40984 ft | 498 kts | 87° |
| 2026-04-27 12:17 | 41.36857 | 61.69015 | 40980 ft | 496 kts | 88° |
| 2026-04-27 12:18 | 41.37253 | 61.78152 | 40984 ft | 497 kts | 88° |
| 2026-04-27 12:18 | 41.37640 | 61.87260 | 40980 ft | 496 kts | 88° |
| 2026-04-27 12:19 | 41.38023 | 61.96424 | 40982 ft | 496 kts | 88° |
| 2026-04-27 12:19 | 41.38396 | 62.05539 | 40981 ft | 496 kts | 88° |
| 2026-04-27 12:20 | 41.38765 | 62.14707 | 40981 ft | 496 kts | 88° |
| 2026-04-27 12:20 | 41.39125 | 62.23866 | 40981 ft | 497 kts | 88° |
| 2026-04-27 12:21 | 41.39477 | 62.32993 | 40977 ft | 496 kts | 88° |
| 2026-04-27 12:21 | 41.39821 | 62.42104 | 40983 ft | 496 kts | 88° |
| 2026-04-27 12:22 | 41.40159 | 62.51250 | 40983 ft | 495 kts | 88° |
| 2026-04-27 12:22 | 41.40519 | 62.60424 | 40988 ft | 497 kts | 88° |
| 2026-04-27 12:23 | 41.40876 | 62.69596 | 40978 ft | 495 kts | 88° |
| 2026-04-27 12:23 | 41.41223 | 62.78688 | 40982 ft | 496 kts | 88° |
| 2026-04-27 12:24 | 41.41563 | 62.87819 | 40987 ft | 496 kts | 88° |
| 2026-04-27 12:24 | 41.41898 | 62.97035 | 40985 ft | 496 kts | 88° |
| 2026-04-27 12:25 | 41.42224 | 63.06206 | 40990 ft | 497 kts | 88° |
| 2026-04-27 12:25 | 41.42542 | 63.15320 | 40992 ft | 497 kts | 88° |
| 2026-04-27 12:26 | 41.42854 | 63.24532 | 40991 ft | 497 kts | 89° |
| 2026-04-27 12:26 | 41.43157 | 63.33669 | 40997 ft | 497 kts | 89° |
| 2026-04-27 12:27 | 41.43454 | 63.42838 | 40996 ft | 497 kts | 88° |
| 2026-04-27 12:27 | 41.43744 | 63.52027 | 41000 ft | 498 kts | 88° |
| 2026-04-27 12:28 | 41.44027 | 63.61211 | 41000 ft | 497 kts | 88° |
| 2026-04-27 12:28 | 41.44300 | 63.70415 | 40992 ft | 497 kts | 89° |
| 2026-04-27 12:29 | 41.44553 | 63.79591 | 40991 ft | 498 kts | 89° |
| 2026-04-27 12:29 | 41.44798 | 63.88752 | 40986 ft | 498 kts | 89° |
| 2026-04-27 12:30 | 41.45037 | 63.97905 | 40992 ft | 496 kts | 89° |
| 2026-04-27 12:30 | 41.45270 | 64.07135 | 40991 ft | 498 kts | 89° |
| 2026-04-27 12:31 | 41.45494 | 64.16304 | 41003 ft | 499 kts | 89° |
| 2026-04-27 12:31 | 41.45713 | 64.25555 | 41012 ft | 498 kts | 89° |
| 2026-04-27 12:32 | 41.45924 | 64.34763 | 41013 ft | 499 kts | 89° |
| 2026-04-27 12:32 | 41.46127 | 64.43948 | 41017 ft | 498 kts | 89° |
| 2026-04-27 12:33 | 41.46323 | 64.53140 | 41014 ft | 498 kts | 89° |
| 2026-04-27 12:33 | 41.46511 | 64.62349 | 41008 ft | 498 kts | 89° |
| 2026-04-27 12:34 | 41.46692 | 64.71519 | 41003 ft | 498 kts | 90° |
| 2026-04-27 12:34 | 41.46866 | 64.80721 | 40992 ft | 499 kts | 90° |
| 2026-04-27 12:35 | 41.47033 | 64.89964 | 40986 ft | 498 kts | 90° |
| 2026-04-27 12:35 | 41.47194 | 64.99213 | 40983 ft | 500 kts | 90° |
| 2026-04-27 12:36 | 41.47346 | 65.08453 | 40972 ft | 500 kts | 90° |
| 2026-04-27 12:36 | 41.47491 | 65.17710 | 40983 ft | 500 kts | 90° |
| 2026-04-27 12:37 | 41.47628 | 65.26923 | 40989 ft | 500 kts | 90° |
| 2026-04-27 12:37 | 41.47758 | 65.36144 | 40984 ft | 499 kts | 90° |
| 2026-04-27 12:38 | 41.47881 | 65.45374 | 40977 ft | 500 kts | 90° |
| 2026-04-27 12:38 | 41.47996 | 65.54586 | 40978 ft | 499 kts | 90° |
| 2026-04-27 12:39 | 41.48105 | 65.63852 | 40981 ft | 499 kts | 90° |
| 2026-04-27 12:39 | 41.48206 | 65.73132 | 40980 ft | 500 kts | 91° |
| 2026-04-27 12:40 | 41.48289 | 65.82335 | 40973 ft | 501 kts | 91° |
| 2026-04-27 12:40 | 41.48313 | 65.91662 | 40981 ft | 501 kts | 91° |
| 2026-04-27 12:41 | 41.48330 | 66.00922 | 40979 ft | 502 kts | 91° |
| 2026-04-27 12:41 | 41.48342 | 66.10079 | 40632 ft | 488 kts | 91° |
| 2026-04-27 12:41 | 41.48345 | 66.14610 | 39852 ft | 492 kts | 91° |
| 2026-04-27 12:42 | 41.48346 | 66.19192 | 38852 ft | 497 kts | 91° |
| 2026-04-27 12:42 | 41.48346 | 66.23753 | 37884 ft | 497 kts | 92° |
| 2026-04-27 12:42 | 41.48344 | 66.28310 | 37054 ft | 496 kts | 91° |
| 2026-04-27 12:42 | 41.48340 | 66.32855 | 36234 ft | 494 kts | 91° |
| 2026-04-27 12:43 | 41.48334 | 66.37446 | 35494 ft | 494 kts | 91° |
| 2026-04-27 12:43 | 41.48327 | 66.41966 | 34785 ft | 494 kts | 91° |
| 2026-04-27 12:43 | 41.48318 | 66.46571 | 33997 ft | 495 kts | 91° |
| 2026-04-27 12:43 | 41.48307 | 66.51129 | 33125 ft | 503 kts | 91° |
| 2026-04-27 12:44 | 41.48294 | 66.55784 | 32542 ft | 497 kts | 91° |
| 2026-04-27 12:44 | 41.48198 | 66.60310 | 31843 ft | 493 kts | 96° |
| 2026-04-27 12:44 | 41.47707 | 66.64818 | 30861 ft | 494 kts | 101° |
| 2026-04-27 12:44 | 41.47069 | 66.69286 | 29868 ft | 496 kts | 102° |
| 2026-04-27 12:45 | 41.46417 | 66.73762 | 29255 ft | 490 kts | 102° |
| 2026-04-27 12:45 | 41.45771 | 66.78187 | 28783 ft | 482 kts | 102° |
| 2026-04-27 12:45 | 41.45138 | 66.82510 | 28235 ft | 476 kts | 102° |
| 2026-04-27 12:45 | 41.44505 | 66.86819 | 27608 ft | 472 kts | 102° |
| 2026-04-27 12:46 | 41.43881 | 66.91060 | 27013 ft | 468 kts | 102° |
| 2026-04-27 12:46 | 41.43255 | 66.95302 | 26415 ft | 464 kts | 102° |
| 2026-04-27 12:46 | 41.42637 | 66.99480 | 25818 ft | 459 kts | 102° |
| 2026-04-27 12:46 | 41.42026 | 67.03600 | 25272 ft | 454 kts | 101° |
| 2026-04-27 12:47 | 41.41416 | 67.07699 | 24710 ft | 450 kts | 101° |
| 2026-04-27 12:47 | 41.40816 | 67.11729 | 24138 ft | 445 kts | 101° |
| 2026-04-27 12:47 | 41.40218 | 67.15734 | 23539 ft | 442 kts | 101° |
| 2026-04-27 12:47 | 41.39616 | 67.19753 | 22960 ft | 438 kts | 101° |
| 2026-04-27 12:48 | 41.39027 | 67.23682 | 22398 ft | 434 kts | 101° |
| 2026-04-27 12:48 | 41.38442 | 67.27566 | 21861 ft | 429 kts | 101° |
| 2026-04-27 12:48 | 41.37860 | 67.31426 | 21339 ft | 431 kts | 101° |
| 2026-04-27 12:48 | 41.37251 | 67.35452 | 21255 ft | 451 kts | 101° |
| 2026-04-27 12:49 | 41.36624 | 67.39594 | 21266 ft | 467 kts | 101° |
| 2026-04-27 12:49 | 41.35979 | 67.43838 | 21192 ft | 469 kts | 101° |
| 2026-04-27 12:49 | 41.35344 | 67.48010 | 21048 ft | 452 kts | 101° |
| 2026-04-27 12:49 | 41.34733 | 67.52010 | 21027 ft | 434 kts | 101° |
| 2026-04-27 12:50 | 41.34139 | 67.55894 | 20935 ft | 421 kts | 101° |
| 2026-04-27 12:50 | 41.33571 | 67.59589 | 20454 ft | 407 kts | 101° |
| 2026-04-27 12:50 | 41.33007 | 67.63257 | 19327 ft | 404 kts | 101° |
| 2026-04-27 12:50 | 41.32447 | 67.66893 | 18061 ft | 404 kts | 102° |
| 2026-04-27 12:51 | 41.31893 | 67.70479 | 16981 ft | 398 kts | 102° |
| 2026-04-27 12:51 | 41.31338 | 67.74062 | 15979 ft | 389 kts | 102° |
| 2026-04-27 12:51 | 41.30799 | 67.77533 | 14989 ft | 382 kts | 102° |
| 2026-04-27 12:51 | 41.30275 | 67.80909 | 14209 ft | 372 kts | 102° |
| 2026-04-27 12:52 | 41.29761 | 67.84206 | 13653 ft | 360 kts | 102° |
| 2026-04-27 12:52 | 41.29242 | 67.87528 | 13100 ft | 374 kts | 102° |
| 2026-04-27 12:52 | 41.28710 | 67.90930 | 12443 ft | 373 kts | 102° |
| 2026-04-27 12:52 | 41.28329 | 67.94304 | 11830 ft | 370 kts | 94° |
| 2026-04-27 12:53 | 41.28199 | 68.00987 | 11430 ft | 362 kts | 91° |
| 2026-04-27 12:53 | 41.28146 | 68.04298 | 11225 ft | 359 kts | 91° |
| 2026-04-27 12:53 | 41.28093 | 68.07539 | 10989 ft | 347 kts | 91° |
| 2026-04-27 12:54 | 41.28039 | 68.10683 | 10770 ft | 336 kts | 91° |
| 2026-04-27 12:54 | 41.27985 | 68.13751 | 10555 ft | 325 kts | 91° |
| 2026-04-27 12:54 | 41.27932 | 68.16685 | 10346 ft | 316 kts | 91° |
| 2026-04-27 12:54 | 41.27880 | 68.19576 | 10137 ft | 307 kts | 91° |
| 2026-04-27 12:55 | 41.27828 | 68.22347 | 9903 ft | 293 kts | 91° |
| 2026-04-27 12:55 | 41.27779 | 68.24995 | 9774 ft | 283 kts | 90° |
| 2026-04-27 12:55 | 41.27730 | 68.27576 | 9568 ft | 277 kts | 90° |
| 2026-04-27 12:55 | 41.27681 | 68.30111 | 9366 ft | 273 kts | 90° |
| 2026-04-27 12:56 | 41.27632 | 68.32611 | 9177 ft | 271 kts | 90° |
| 2026-04-27 12:56 | 41.27584 | 68.35109 | 8992 ft | 273 kts | 90° |
| 2026-04-27 12:56 | 41.27534 | 68.37627 | 8799 ft | 272 kts | 90° |
| 2026-04-27 12:56 | 41.27483 | 68.40132 | 8606 ft | 270 kts | 90° |
| 2026-04-27 12:57 | 41.27433 | 68.42610 | 8420 ft | 270 kts | 90° |
| 2026-04-27 12:57 | 41.27382 | 68.45082 | 8235 ft | 269 kts | 90° |
| 2026-04-27 12:57 | 41.27330 | 68.47594 | 8047 ft | 269 kts | 90° |
| 2026-04-27 12:57 | 41.27278 | 68.50068 | 7859 ft | 269 kts | 90° |
| 2026-04-27 12:58 | 41.27227 | 68.52521 | 7670 ft | 267 kts | 90° |
| 2026-04-27 12:58 | 41.27174 | 68.54973 | 7484 ft | 266 kts | 90° |
| 2026-04-27 12:58 | 41.27121 | 68.57446 | 7302 ft | 265 kts | 90° |
| 2026-04-27 12:58 | 41.27068 | 68.59886 | 7123 ft | 265 kts | 90° |
| 2026-04-27 12:59 | 41.27014 | 68.62309 | 6938 ft | 265 kts | 90° |
| 2026-04-27 12:59 | 41.26960 | 68.64743 | 6751 ft | 264 kts | 90° |
| 2026-04-27 12:59 | 41.26905 | 68.67194 | 6570 ft | 263 kts | 90° |
| 2026-04-27 12:59 | 41.26850 | 68.69630 | 6390 ft | 263 kts | 90° |
| 2026-04-27 13:00 | 41.26795 | 68.72047 | 6204 ft | 262 kts | 90° |
| 2026-04-27 13:00 | 41.26740 | 68.74453 | 6051 ft | 258 kts | 91° |
| 2026-04-27 13:00 | 41.26685 | 68.76787 | 6049 ft | 250 kts | 91° |
| 2026-04-27 13:00 | 41.26631 | 68.79083 | 5889 ft | 251 kts | 90° |
| 2026-04-27 13:01 | 41.26576 | 68.81404 | 5565 ft | 253 kts | 90° |
| 2026-04-27 13:01 | 41.26521 | 68.83717 | 5333 ft | 251 kts | 90° |
| 2026-04-27 13:01 | 41.26465 | 68.86031 | 5148 ft | 247 kts | 90° |
| 2026-04-27 13:01 | 41.26188 | 68.88255 | 4970 ft | 245 kts | 107° |
| 2026-04-27 13:02 | 41.25536 | 68.90314 | 4867 ft | 240 kts | 112° |
| 2026-04-27 13:02 | 41.24847 | 68.92284 | 4792 ft | 235 kts | 112° |
| 2026-04-27 13:02 | 41.24150 | 68.94253 | 4681 ft | 234 kts | 112° |
| 2026-04-27 13:02 | 41.23461 | 68.96201 | 4572 ft | 233 kts | 112° |
| 2026-04-27 13:03 | 41.22819 | 68.98141 | 4470 ft | 221 kts | 104° |
| 2026-04-27 13:03 | 41.22582 | 69.00075 | 4392 ft | 208 kts | 88° |
| 2026-04-27 13:03 | 41.22622 | 69.00974 | 4334 ft | 208 kts | 83° |
| 2026-04-27 13:04 | 41.22739 | 69.02222 | 4274 ft | 206 kts | 80° |
| 2026-04-27 13:04 | 41.22956 | 69.04095 | 4182 ft | 199 kts | 79° |
| 2026-04-27 13:04 | 41.23166 | 69.05863 | 4094 ft | 188 kts | 78° |
| 2026-04-27 13:05 | 41.23367 | 69.07584 | 4020 ft | 185 kts | 79° |
| 2026-04-27 13:05 | 41.23555 | 69.09246 | 3800 ft | 178 kts | 79° |
| 2026-04-27 13:05 | 41.23734 | 69.10839 | 3587 ft | 167 kts | 78° |
| 2026-04-27 13:05 | 41.23898 | 69.12309 | 3398 ft | 154 kts | 78° |
| 2026-04-27 13:06 | 41.24053 | 69.13683 | 3212 ft | 143 kts | 78° |
| 2026-04-27 13:06 | 41.24198 | 69.14982 | 3034 ft | 142 kts | 78° |
| 2026-04-27 13:06 | 41.24344 | 69.16293 | 2854 ft | 142 kts | 78° |
| 2026-04-27 13:06 | 41.24490 | 69.17612 | 2669 ft | 143 kts | 78° |
| 2026-04-27 13:07 | 41.24638 | 69.18936 | 2478 ft | 145 kts | 78° |
| 2026-04-27 13:07 | 41.24784 | 69.20247 | 2286 ft | 142 kts | 78° |
| 2026-04-27 13:07 | 41.24928 | 69.21549 | 2096 ft | 142 kts | 78° |
| 2026-04-27 13:07 | 41.25071 | 69.22839 | 1920 ft | 141 kts | 78° |
| 2026-04-27 13:08 | 41.25209 | 69.24121 | 1724 ft | 142 kts | 79° |
| 2026-04-27 13:08 | 41.25359 | 69.25420 | 1540 ft | 142 kts | 78° |
| 2026-04-27 13:08 | 41.25502 | 69.26715 | 1438 ft | 137 kts | 79° |
| 2026-04-27 13:08 | 41.25632 | 69.27921 | 1430 ft | 124 kts | 82° |
| 2026-04-27 13:09 | 41.25749 | 69.29013 | 1431 ft | 109 kts | 82° |
| 2026-04-27 13:09 | 41.25844 | 69.29931 | 1431 ft | 75 kts | 79° |
| 2026-04-27 13:09 | 41.25892 | 69.30305 | 1431 ft | 24 kts | 80° |
| 2026-04-27 13:09 | 41.25970 | 69.30392 | 1431 ft | 6 kts | 356° |
| 2026-04-27 13:10 | 41.25982 | 69.30390 | 1431 ft | 0 kts | 352° |
| 2026-04-27 13:10 | 41.26004 | 69.30386 | 1431 ft | 8 kts | 352° |
| 2026-04-27 13:10 | 41.26075 | 69.30333 | 1431 ft | 16 kts | 289° |
| 2026-04-27 13:10 | 41.26071 | 69.30141 | 1431 ft | 24 kts | 263° |
| 2026-04-27 13:11 | 41.26040 | 69.29884 | 1431 ft | 31 kts | 263° |
| 2026-04-27 13:11 | 41.26007 | 69.29573 | 1431 ft | 37 kts | 263° |
| 2026-04-27 13:11 | 41.25969 | 69.29206 | 1431 ft | 43 kts | 260° |
| 2026-04-27 13:11 | 41.25922 | 69.28786 | 1430 ft | 48 kts | 260° |
| 2026-04-27 13:12 | 41.25869 | 69.28323 | 1430 ft | 51 kts | 261° |
| 2026-04-27 13:12 | 41.25820 | 69.27884 | 1430 ft | 41 kts | 261° |
| 2026-04-27 13:12 | 41.25792 | 69.27626 | 1430 ft | 17 kts | 264° |
| 2026-04-27 13:12 | 41.25832 | 69.27512 | 1430 ft | 9 kts | 315° |
| 2026-04-27 13:13 | 41.25882 | 69.27452 | 1430 ft | 0 kts | 319° |
| 2026-04-27 13:13 | 41.25894 | 69.27438 | 1430 ft | 8 kts | 319° |
| 2026-04-27 13:13 | 41.25980 | 69.27340 | 1430 ft | 23 kts | 319° |
| 2026-04-27 13:13 | 41.26099 | 69.27199 | 1430 ft | 15 kts | 317° |
| 2026-04-27 13:14 | 41.26118 | 69.27116 | 1430 ft | 10 kts | 255° |
| 2026-04-27 13:14 | 41.26099 | 69.27037 | 1430 ft | 7 kts | 256° |
| 2026-04-27 13:14 | 41.26091 | 69.26958 | 1430 ft | 8 kts | 265° |
| 2026-04-27 13:14 | 41.26087 | 69.26877 | 1430 ft | 8 kts | 268° |
| 2026-04-27 13:15 | 41.26091 | 69.26820 | 1430 ft | 5 kts | 280° |
| 2026-04-27 13:15 | 41.26099 | 69.26769 | 1430 ft | 4 kts | 283° |
| 2026-04-27 13:15 | 41.26105 | 69.26736 | 1430 ft | 2 kts | 284° |
| 2026-04-27 13:15 | 41.26107 | 69.26728 | 1430 ft | 0 kts | 284° |